createdAt,value
2018-07-16T00:00:18.172Z,17.00
2018-07-16T00:02:46.473Z,16.90
2018-07-16T00:05:14.785Z,16.90
2018-07-16T00:07:43.073Z,16.90
2018-07-16T00:10:11.349Z,16.80
2018-07-16T00:12:39.720Z,16.70
2018-07-16T00:15:08.021Z,16.60
2018-07-16T00:17:36.336Z,16.60
2018-07-16T00:20:05.025Z,16.50
2018-07-16T00:22:33.324Z,16.50
2018-07-16T00:25:01.758Z,16.40
2018-07-16T00:27:30.062Z,16.40
2018-07-16T00:32:26.423Z,16.30
2018-07-16T00:34:54.707Z,16.20
2018-07-16T00:37:23.032Z,16.20
2018-07-16T00:39:51.335Z,16.10
2018-07-16T00:42:19.646Z,16.10
2018-07-16T00:44:47.936Z,16.10
2018-07-16T00:47:16.265Z,16.00
2018-07-16T00:52:12.614Z,15.90
2018-07-16T00:54:40.932Z,15.90
2018-07-16T00:57:09.330Z,15.80
2018-07-16T00:59:37.640Z,15.60
2018-07-16T01:02:06.041Z,15.50
2018-07-16T01:04:34.330Z,15.30
2018-07-16T01:07:02.634Z,15.10
2018-07-16T01:09:30.919Z,15.00
2018-07-16T01:11:59.293Z,14.90
2018-07-16T01:14:27.580Z,14.80
2018-07-16T01:16:55.877Z,14.90
2018-07-16T01:19:24.165Z,14.90
2018-07-16T01:21:52.441Z,14.90
2018-07-16T01:24:20.758Z,14.90
2018-07-16T01:26:49.098Z,14.90
2018-07-16T01:29:17.373Z,14.90
2018-07-16T01:34:13.691Z,14.70
2018-07-16T01:36:42.005Z,14.60
2018-07-16T01:39:10.304Z,14.40
2018-07-16T01:41:38.568Z,14.50
2018-07-16T01:44:06.885Z,14.40
2018-07-16T01:46:35.176Z,14.20
2018-07-16T01:49:03.473Z,13.90
2018-07-16T01:51:31.835Z,13.90
2018-07-16T01:54:00.137Z,13.90
2018-07-16T01:58:56.477Z,14.10
2018-07-16T02:01:24.776Z,14.10
2018-07-16T02:03:53.094Z,14.10
2018-07-16T02:06:21.392Z,14.10
2018-07-16T02:08:49.709Z,14.10
2018-07-16T02:11:17.967Z,14.00
2018-07-16T02:13:46.244Z,13.70
2018-07-16T02:16:14.532Z,13.60
2018-07-16T02:18:42.809Z,13.60
2018-07-16T02:21:11.110Z,13.60
2018-07-16T02:23:39.408Z,13.60
2018-07-16T02:26:07.721Z,13.60
2018-07-16T02:28:36.011Z,13.60
2018-07-16T02:31:04.292Z,13.60
2018-07-16T02:33:32.606Z,13.70
2018-07-16T02:36:00.913Z,13.70
2018-07-16T02:38:29.278Z,13.60
2018-07-16T02:40:57.535Z,13.60
2018-07-16T02:43:25.823Z,13.50
2018-07-16T02:45:54.115Z,13.40
2018-07-16T02:48:22.391Z,13.30
2018-07-16T02:50:50.697Z,13.40
2018-07-16T02:53:19.037Z,13.30
2018-07-16T02:55:47.340Z,13.20
2018-07-16T02:58:15.678Z,13.20
2018-07-16T03:00:43.957Z,13.20
2018-07-16T03:03:12.286Z,13.30
2018-07-16T03:05:40.624Z,13.40
2018-07-16T03:08:08.919Z,13.40
2018-07-16T03:10:37.245Z,13.40
2018-07-16T03:13:06.274Z,13.40
2018-07-16T03:15:34.586Z,13.40
2018-07-16T03:18:02.919Z,13.30
2018-07-16T03:20:31.124Z,13.30
2018-07-16T03:22:59.426Z,13.40
2018-07-16T03:25:27.741Z,13.30
2018-07-16T03:27:56.039Z,13.30
2018-07-16T03:30:24.339Z,13.30
2018-07-16T03:35:20.652Z,13.30
2018-07-16T03:37:48.928Z,13.30
2018-07-16T03:40:17.235Z,13.30
2018-07-16T03:45:13.594Z,13.20
2018-07-16T03:47:41.877Z,13.20
2018-07-16T03:50:10.177Z,13.10
2018-07-16T03:52:38.487Z,13.10
2018-07-16T03:55:06.797Z,13.10
2018-07-16T03:57:35.044Z,13.10
2018-07-16T04:00:03.434Z,13.10
2018-07-16T04:02:31.737Z,13.10
2018-07-16T04:05:00.080Z,13.20
2018-07-16T04:07:28.564Z,13.10
2018-07-16T04:09:56.873Z,13.00
2018-07-16T04:12:25.192Z,13.00
2018-07-16T04:14:53.490Z,13.10
2018-07-16T04:17:21.812Z,13.00
2018-07-16T04:19:50.092Z,13.00
2018-07-16T04:22:18.419Z,13.00
2018-07-16T04:24:46.777Z,13.00
2018-07-16T04:27:15.052Z,13.10
2018-07-16T04:29:43.379Z,13.10
2018-07-16T04:34:39.716Z,13.50
2018-07-16T04:37:08.025Z,13.30
2018-07-16T04:39:36.334Z,13.40
2018-07-16T04:42:04.628Z,13.40
2018-07-16T04:44:32.933Z,13.40
2018-07-16T04:47:01.217Z,13.40
2018-07-16T04:49:29.518Z,13.50
2018-07-16T04:51:57.810Z,13.60
2018-07-16T04:54:26.167Z,13.70
2018-07-16T04:56:54.470Z,13.90
2018-07-16T04:59:22.783Z,13.90
2018-07-16T05:01:51.056Z,13.70
2018-07-16T05:04:19.377Z,13.90
2018-07-16T05:06:47.686Z,14.10
2018-07-16T05:09:15.963Z,14.30
2018-07-16T05:11:44.235Z,14.40
2018-07-16T05:14:12.564Z,14.50
2018-07-16T05:16:40.842Z,14.60
2018-07-16T05:19:09.123Z,14.70
2018-07-16T05:21:37.417Z,14.80
2018-07-16T05:24:05.724Z,14.90
2018-07-16T05:26:34.057Z,15.00
2018-07-16T05:29:02.425Z,15.20
2018-07-16T05:31:30.747Z,15.30
2018-07-16T05:33:58.988Z,15.40
2018-07-16T05:36:27.238Z,15.50
2018-07-16T05:38:55.522Z,15.60
2018-07-16T05:41:23.780Z,16.00
2018-07-16T05:43:52.052Z,16.10
2018-07-16T05:46:20.335Z,16.20
2018-07-16T05:48:48.620Z,16.40
2018-07-16T05:51:16.890Z,16.70
2018-07-16T05:53:45.174Z,16.90
2018-07-16T05:56:13.489Z,17.00
2018-07-16T05:58:41.928Z,17.20
2018-07-16T06:01:10.209Z,17.40
2018-07-16T06:03:38.517Z,17.60
2018-07-16T06:06:06.823Z,18.00
2018-07-16T06:08:35.091Z,18.10
2018-07-16T06:11:03.460Z,18.30
2018-07-16T06:13:31.793Z,18.40
2018-07-16T06:16:00.090Z,18.20
2018-07-16T06:18:29.372Z,18.40
2018-07-16T06:20:57.650Z,18.60
2018-07-16T06:23:25.915Z,18.90
2018-07-16T06:25:54.253Z,19.50
2018-07-16T06:28:22.526Z,19.80
2018-07-16T06:30:50.854Z,19.80
2018-07-16T06:33:19.146Z,20.10
2018-07-16T06:35:47.434Z,19.90
2018-07-16T06:38:15.680Z,20.10
2018-07-16T06:40:44.263Z,20.40
2018-07-16T06:43:12.441Z,20.40
2018-07-16T06:45:40.699Z,20.30
2018-07-16T06:48:08.991Z,20.50
2018-07-16T06:50:37.273Z,21.00
2018-07-16T06:53:05.612Z,20.80
2018-07-16T06:55:33.921Z,21.80
2018-07-16T06:58:02.217Z,22.10
2018-07-16T07:00:30.529Z,22.40
2018-07-16T07:02:58.909Z,22.10
2018-07-16T07:05:27.239Z,22.30
2018-07-16T07:07:55.558Z,22.60
2018-07-16T07:10:23.885Z,22.80
2018-07-16T07:12:52.214Z,23.40
2018-07-16T07:15:20.544Z,23.70
2018-07-16T07:17:48.833Z,23.40
2018-07-16T07:20:17.144Z,24.30
2018-07-16T07:22:45.471Z,24.70
2018-07-16T07:25:13.818Z,24.80
2018-07-16T07:27:42.127Z,24.00
2018-07-16T07:30:10.459Z,24.10
2018-07-16T07:32:38.760Z,24.30
2018-07-16T07:35:07.087Z,24.50
2018-07-16T07:37:35.384Z,24.70
2018-07-16T07:40:03.684Z,25.00
2018-07-16T07:42:32.372Z,25.70
2018-07-16T07:45:00.705Z,25.50
2018-07-16T07:47:29.047Z,25.60
2018-07-16T07:49:57.346Z,25.40
2018-07-16T07:54:54.068Z,25.00
2018-07-16T07:57:22.080Z,25.00
2018-07-16T07:59:50.405Z,25.30
2018-07-16T08:02:18.749Z,25.40
2018-07-16T08:04:47.057Z,25.30
2018-07-16T08:07:15.374Z,25.50
2018-07-16T08:09:44.469Z,25.80
2018-07-16T08:12:13.578Z,26.20
2018-07-16T08:14:43.128Z,26.80
2018-07-16T08:17:12.143Z,27.10
2018-07-16T08:19:40.484Z,26.40
2018-07-16T08:22:08.885Z,26.70
2018-07-16T08:24:37.286Z,27.20
2018-07-16T08:27:06.060Z,27.10
2018-07-16T08:29:35.205Z,26.80
2018-07-16T08:32:03.682Z,27.10
2018-07-16T08:34:32.297Z,27.60
2018-07-16T08:37:00.623Z,27.40
2018-07-16T08:39:28.955Z,27.30
2018-07-16T08:41:57.324Z,27.20
2018-07-16T08:44:25.657Z,27.40
2018-07-16T08:46:53.990Z,27.50
2018-07-16T08:49:22.323Z,27.40
2018-07-16T08:51:50.630Z,27.00
2018-07-16T08:54:18.973Z,26.90
2018-07-16T08:56:47.287Z,27.30
2018-07-16T08:59:15.634Z,27.60
2018-07-16T09:01:44.099Z,27.40
2018-07-16T09:04:12.528Z,27.10
2018-07-16T09:06:40.770Z,27.30
2018-07-16T09:09:09.237Z,27.60
2018-07-16T09:11:37.540Z,27.60
2018-07-16T09:14:05.857Z,27.20
2018-07-16T09:16:34.194Z,27.30
2018-07-16T09:19:02.553Z,27.30
2018-07-16T09:21:30.830Z,27.70
2018-07-16T09:23:59.205Z,27.60
2018-07-16T09:28:55.565Z,27.70
2018-07-16T09:31:23.866Z,27.50
2018-07-16T09:33:52.204Z,27.20
2018-07-16T09:36:20.626Z,27.10
2018-07-16T09:38:48.924Z,27.30
2018-07-16T09:41:17.234Z,27.20
2018-07-16T09:43:45.556Z,27.10
2018-07-16T09:46:13.904Z,27.50
2018-07-16T09:48:42.222Z,27.40
2018-07-16T09:51:10.551Z,27.40
2018-07-16T09:53:38.874Z,27.40
2018-07-16T09:56:07.232Z,27.40
2018-07-16T09:58:35.465Z,27.60
2018-07-16T10:01:09.279Z,27.50
2018-07-16T10:03:37.633Z,27.90
2018-07-16T10:06:05.987Z,27.80
2018-07-16T10:08:34.413Z,27.70
2018-07-16T10:11:02.951Z,27.70
2018-07-16T10:13:31.371Z,27.60
2018-07-16T10:15:59.701Z,27.60
2018-07-16T10:18:28.027Z,27.70
2018-07-16T10:20:56.436Z,27.90
2018-07-16T10:23:24.738Z,28.20
2018-07-16T10:25:53.138Z,27.80
2018-07-16T10:28:21.513Z,27.90
2018-07-16T10:30:49.793Z,28.20
2018-07-16T10:33:18.104Z,28.30
2018-07-16T10:35:46.438Z,28.20
2018-07-16T10:38:14.754Z,28.20
2018-07-16T10:40:43.089Z,28.40
2018-07-16T10:43:11.401Z,30.10
2018-07-16T10:45:39.686Z,28.30
2018-07-16T10:48:08.021Z,28.50
2018-07-16T10:50:36.333Z,28.50
2018-07-16T10:53:04.645Z,28.80
2018-07-16T10:55:32.969Z,28.90
2018-07-16T10:58:01.277Z,28.50
2018-07-16T11:00:29.616Z,28.70
2018-07-16T11:02:57.941Z,29.00
2018-07-16T11:05:26.319Z,29.10
2018-07-16T11:07:54.582Z,29.20
2018-07-16T11:10:22.984Z,29.40
2018-07-16T11:12:51.417Z,29.50
2018-07-16T11:15:19.765Z,29.40
2018-07-16T11:17:48.078Z,29.40
2018-07-16T11:20:16.394Z,29.40
2018-07-16T11:22:44.792Z,29.40
2018-07-16T11:25:13.125Z,29.30
2018-07-16T11:27:41.481Z,29.10
2018-07-16T11:30:09.853Z,29.20
2018-07-16T11:32:38.181Z,29.00
2018-07-16T11:40:02.574Z,29.60
2018-07-16T11:42:30.958Z,29.50
2018-07-16T11:44:59.261Z,29.70
2018-07-16T11:47:27.626Z,29.90
2018-07-16T11:49:55.933Z,30.00
2018-07-16T11:52:24.308Z,29.80
2018-07-16T11:54:52.644Z,30.00
2018-07-16T11:57:20.997Z,30.20
2018-07-16T11:59:49.394Z,30.50
2018-07-16T12:02:17.744Z,30.20
2018-07-16T12:04:46.061Z,30.40
2018-07-16T12:07:14.357Z,30.60
2018-07-16T12:09:42.662Z,31.00
2018-07-16T12:12:11.045Z,31.70
2018-07-16T12:14:39.309Z,32.30
2018-07-16T12:17:07.691Z,31.90
2018-07-16T12:19:36.022Z,31.20
2018-07-16T12:22:04.325Z,31.10
2018-07-16T12:27:00.688Z,32.90
2018-07-16T12:29:29.181Z,32.70
2018-07-16T12:31:57.476Z,30.10
2018-07-16T12:34:25.891Z,28.40
2018-07-16T12:36:54.219Z,27.00
2018-07-16T12:39:22.532Z,26.20
2018-07-16T12:41:50.929Z,25.00
2018-07-16T12:44:19.145Z,23.60
2018-07-16T12:46:47.445Z,22.90
2018-07-16T12:49:15.786Z,22.50
2018-07-16T12:51:44.104Z,22.40
2018-07-16T12:54:12.401Z,21.80
2018-07-16T12:56:40.933Z,20.60
2018-07-16T12:59:09.248Z,19.60
2018-07-16T13:01:37.562Z,18.20
2018-07-16T13:04:05.870Z,17.40
2018-07-16T13:06:34.200Z,17.10
2018-07-16T13:09:02.540Z,17.20
2018-07-16T13:11:30.948Z,17.20
2018-07-16T13:13:59.299Z,16.80
2018-07-16T13:16:27.597Z,16.50
2018-07-16T13:18:55.948Z,16.20
2018-07-16T13:21:24.274Z,16.10
2018-07-16T13:23:52.594Z,15.90
2018-07-16T13:26:20.993Z,15.90
2018-07-16T13:28:49.360Z,15.90
2018-07-16T13:31:17.711Z,16.00
2018-07-16T13:33:45.989Z,16.00
2018-07-16T13:36:14.263Z,16.30
2018-07-16T13:38:42.595Z,16.30
2018-07-16T13:41:10.889Z,16.30
2018-07-16T13:43:39.221Z,16.50
2018-07-16T13:46:07.732Z,16.50
2018-07-16T13:48:36.028Z,16.60
2018-07-16T13:53:32.461Z,16.90
2018-07-16T13:56:00.805Z,17.10
2018-07-16T13:58:29.130Z,17.30
2018-07-16T14:00:57.411Z,17.50
2018-07-16T14:05:53.845Z,17.50
2018-07-16T14:08:22.191Z,17.60
2018-07-16T14:10:50.514Z,17.60
2018-07-16T14:13:18.844Z,17.60
2018-07-16T14:15:47.162Z,17.40
2018-07-16T14:18:15.526Z,17.50
2018-07-16T14:20:43.882Z,17.70
2018-07-16T14:23:12.188Z,18.20
2018-07-16T14:25:40.505Z,18.70
2018-07-16T14:28:09.016Z,19.20
2018-07-16T14:30:37.359Z,19.40
2018-07-16T14:35:33.815Z,20.10
2018-07-16T14:38:02.089Z,20.60
2018-07-16T14:40:30.407Z,20.70
2018-07-16T14:42:58.692Z,20.80
2018-07-16T14:45:27.020Z,21.20
2018-07-16T14:47:55.321Z,21.20
2018-07-16T14:50:23.753Z,20.90
2018-07-16T14:52:52.035Z,21.30
2018-07-16T14:57:48.397Z,22.50
2018-07-16T15:00:17.116Z,24.00
2018-07-16T15:02:45.512Z,25.10
2018-07-16T15:05:13.844Z,26.30
2018-07-16T15:07:42.172Z,27.10
2018-07-16T15:10:10.524Z,27.80
2018-07-16T15:12:38.881Z,28.10
2018-07-16T15:15:07.208Z,28.30
2018-07-16T15:17:35.548Z,29.00
2018-07-16T15:20:04.180Z,29.40
2018-07-16T15:22:32.308Z,29.20
2018-07-16T15:25:00.615Z,28.50
2018-07-16T15:27:28.904Z,28.00
2018-07-16T15:29:57.239Z,28.20
2018-07-16T15:32:25.562Z,29.10
2018-07-16T15:34:53.893Z,30.30
2018-07-16T15:37:22.184Z,30.20
2018-07-16T15:39:50.543Z,29.60
2018-07-16T15:42:18.853Z,29.10
2018-07-16T15:44:47.149Z,28.40
2018-07-16T15:47:15.464Z,27.60
2018-07-16T15:49:43.761Z,26.50
2018-07-16T15:52:12.293Z,25.50
2018-07-16T15:54:40.611Z,24.90
2018-07-16T15:57:08.939Z,24.70
2018-07-16T15:59:37.229Z,24.70
2018-07-16T16:02:05.562Z,24.70
2018-07-16T16:04:33.868Z,24.90
2018-07-16T16:07:02.178Z,25.20
2018-07-16T16:09:30.482Z,25.50
2018-07-16T16:11:58.796Z,25.80
2018-07-16T16:14:27.120Z,26.60
2018-07-16T16:16:55.455Z,27.90
2018-07-16T16:19:24.021Z,29.50
2018-07-16T16:21:52.310Z,31.50
2018-07-16T16:24:21.136Z,32.70
2018-07-16T16:26:49.547Z,33.90
2018-07-16T16:29:18.553Z,34.70
2018-07-16T16:31:46.902Z,35.10
2018-07-16T16:34:15.234Z,34.20
2018-07-16T16:36:43.678Z,34.20
2018-07-16T16:39:11.911Z,34.00
2018-07-16T16:41:40.210Z,33.80
2018-07-16T16:44:09.452Z,33.90
2018-07-16T16:46:37.742Z,34.50
2018-07-16T16:49:06.163Z,33.90
2018-07-16T16:51:34.441Z,33.40
2018-07-16T16:54:02.752Z,33.60
2018-07-16T16:56:31.125Z,33.60
2018-07-16T16:58:59.408Z,32.80
2018-07-16T17:01:27.740Z,32.50
2018-07-16T17:03:56.055Z,32.00
2018-07-16T17:06:24.362Z,31.80
2018-07-16T17:08:52.683Z,31.20
2018-07-16T17:11:21.002Z,31.20
2018-07-16T17:13:49.350Z,31.20
2018-07-16T17:16:17.674Z,30.70
2018-07-16T17:18:45.980Z,30.40
2018-07-16T17:21:14.317Z,30.60
2018-07-16T17:23:42.624Z,30.60
2018-07-16T17:26:10.958Z,30.40
2018-07-16T17:28:39.234Z,30.40
2018-07-16T17:31:07.565Z,30.10
2018-07-16T17:33:35.888Z,29.80
2018-07-16T17:36:04.185Z,29.60
2018-07-16T17:38:32.523Z,29.10
2018-07-16T17:41:00.828Z,28.70
2018-07-16T17:43:29.165Z,28.20
2018-07-16T17:45:57.577Z,27.70
2018-07-16T17:48:25.793Z,27.50
2018-07-16T17:50:54.124Z,27.10
2018-07-16T17:53:22.554Z,26.80
2018-07-16T17:55:50.743Z,26.60
2018-07-16T17:58:19.082Z,26.20
2018-07-16T18:00:47.361Z,26.00
2018-07-16T18:03:15.661Z,25.80
2018-07-16T18:05:44.106Z,25.70
2018-07-16T18:08:12.420Z,25.60
2018-07-16T18:10:40.736Z,25.50
2018-07-16T18:13:09.069Z,25.40
2018-07-16T18:15:37.371Z,25.20
2018-07-16T18:18:05.689Z,25.10
2018-07-16T18:20:34.015Z,24.90
2018-07-16T18:23:02.360Z,24.80
2018-07-16T18:25:30.821Z,24.70
2018-07-16T18:27:59.121Z,24.60
2018-07-16T18:30:27.416Z,24.40
2018-07-16T18:32:55.700Z,24.20
2018-07-16T18:35:24.018Z,24.10
2018-07-16T18:37:52.305Z,24.00
2018-07-16T18:40:20.652Z,24.00
2018-07-16T18:42:48.948Z,24.00
2018-07-16T18:45:17.241Z,23.90
2018-07-16T18:47:45.572Z,23.90
2018-07-16T18:50:14.422Z,23.90
2018-07-16T18:52:42.857Z,23.90
2018-07-16T18:55:11.252Z,23.90
2018-07-16T18:57:39.552Z,23.70
2018-07-16T19:00:08.623Z,23.60
2018-07-16T19:02:36.965Z,23.60
2018-07-16T19:05:05.377Z,23.50
2018-07-16T19:07:33.701Z,23.50
2018-07-16T19:10:02.104Z,23.30
2018-07-16T19:12:30.448Z,23.20
2018-07-16T19:14:58.781Z,23.10
2018-07-16T19:17:27.090Z,23.00
2018-07-16T19:19:55.410Z,22.70
2018-07-16T19:22:23.714Z,22.60
2018-07-16T19:24:52.055Z,22.50
2018-07-16T19:29:48.491Z,22.30
2018-07-16T19:32:16.837Z,22.20
2018-07-16T19:34:45.138Z,22.10
2018-07-16T19:37:13.504Z,21.80
2018-07-16T19:39:41.802Z,21.60
2018-07-16T19:42:10.123Z,21.40
2018-07-16T19:44:38.416Z,21.00
2018-07-16T19:47:06.862Z,20.80
2018-07-16T19:49:35.187Z,20.70
2018-07-16T19:52:03.530Z,20.60
2018-07-16T19:54:31.876Z,20.50
2018-07-16T19:57:00.241Z,20.20
2018-07-16T19:59:28.480Z,19.90
2018-07-16T20:01:56.779Z,19.60
2018-07-16T20:04:25.105Z,19.30
2018-07-16T20:06:57.140Z,19.20
2018-07-16T20:09:26.261Z,19.10
2018-07-16T20:11:54.445Z,18.90
2018-07-16T20:14:23.510Z,18.70
2018-07-16T20:16:51.790Z,18.60
2018-07-16T20:19:20.082Z,18.60
2018-07-16T20:21:48.390Z,18.80
2018-07-16T20:24:16.881Z,19.00
2018-07-16T20:26:45.260Z,19.20
2018-07-16T20:29:13.556Z,19.20
2018-07-16T20:31:42.010Z,19.30
2018-07-16T20:34:10.384Z,18.90
2018-07-16T20:36:38.708Z,18.60
2018-07-16T20:39:07.858Z,18.40
2018-07-16T20:41:36.146Z,18.00
2018-07-16T20:44:04.952Z,17.70
2018-07-16T20:46:33.260Z,17.60
2018-07-16T20:49:01.590Z,17.50
2018-07-16T20:51:29.913Z,17.50
2018-07-16T20:53:58.183Z,17.50
2018-07-16T20:58:54.570Z,17.20
2018-07-16T21:01:22.930Z,17.40
2018-07-16T21:03:51.262Z,17.40
2018-07-16T21:06:19.565Z,17.40
2018-07-16T21:08:47.906Z,17.40
2018-07-16T21:11:16.222Z,17.30
2018-07-16T21:13:44.615Z,17.20
2018-07-16T21:16:12.933Z,17.10
2018-07-16T21:18:41.249Z,17.10
2018-07-16T21:21:09.587Z,17.00
2018-07-16T21:23:38.385Z,16.90
2018-07-16T21:26:06.815Z,16.70
2018-07-16T21:28:35.121Z,16.60
2018-07-16T21:31:03.464Z,16.50
2018-07-16T21:33:31.792Z,16.50
2018-07-16T21:36:00.100Z,16.50
2018-07-16T21:38:28.441Z,16.40
2018-07-16T21:40:56.766Z,16.40
2018-07-16T21:43:25.096Z,16.20
2018-07-16T21:45:53.411Z,16.20
2018-07-16T21:48:21.767Z,16.10
2018-07-16T21:50:50.334Z,16.10
2018-07-16T21:53:18.665Z,16.00
2018-07-16T21:55:46.997Z,16.00
2018-07-16T21:58:15.300Z,15.90
2018-07-16T22:00:43.705Z,15.90
2018-07-16T22:03:12.032Z,15.90
2018-07-16T22:05:40.347Z,15.90
2018-07-16T22:10:36.701Z,15.80
2018-07-16T22:13:05.026Z,15.80
2018-07-16T22:15:33.377Z,15.80
2018-07-16T22:18:01.732Z,15.80
2018-07-16T22:20:30.031Z,15.80
2018-07-16T22:22:58.438Z,15.70
2018-07-16T22:25:27.291Z,15.70
2018-07-16T22:27:55.603Z,15.60
2018-07-16T22:30:23.948Z,15.50
2018-07-16T22:32:52.247Z,15.50
2018-07-16T22:35:20.555Z,15.50
2018-07-16T22:37:48.858Z,15.40
2018-07-16T22:40:17.178Z,15.40
2018-07-16T22:42:45.497Z,15.40
2018-07-16T22:45:13.803Z,15.40
2018-07-16T22:47:42.116Z,15.40
2018-07-16T22:50:10.462Z,15.40
2018-07-16T22:52:38.785Z,15.30
2018-07-16T22:55:07.085Z,15.30
2018-07-16T22:57:35.423Z,15.30
2018-07-16T23:00:04.113Z,15.20
2018-07-16T23:02:32.430Z,15.10
2018-07-16T23:05:00.754Z,15.00
2018-07-16T23:07:29.206Z,14.90
2018-07-16T23:12:25.559Z,14.70
2018-07-16T23:14:53.880Z,14.60
2018-07-16T23:17:22.208Z,14.50
2018-07-16T23:19:50.514Z,14.40
2018-07-16T23:22:18.847Z,14.40
2018-07-16T23:24:47.131Z,14.40
2018-07-16T23:27:15.505Z,14.40
2018-07-16T23:29:43.798Z,14.50
2018-07-16T23:32:12.161Z,14.50
2018-07-16T23:37:08.516Z,14.50
2018-07-16T23:39:36.830Z,14.50
2018-07-16T23:42:05.120Z,14.40
2018-07-16T23:44:33.447Z,14.40
2018-07-16T23:47:01.767Z,14.40
2018-07-16T23:49:30.123Z,14.40
2018-07-16T23:51:58.415Z,14.30
2018-07-16T23:54:26.734Z,14.20
2018-07-16T23:56:55.033Z,14.20
2018-07-16T23:59:23.334Z,14.10
